createdAt,value
2023-03-30T00:00:08.128Z,12.8
2023-03-30T00:05:09.090Z,12.8
2023-03-30T00:10:08.201Z,12.5
2023-03-30T00:15:08.225Z,12.5
2023-03-30T00:20:08.303Z,12.5
2023-03-30T00:25:08.333Z,12.5
2023-03-30T00:30:08.383Z,12.5
2023-03-30T00:35:08.430Z,12.8
2023-03-30T00:40:08.456Z,13.1
2023-03-30T00:45:08.468Z,13.5
2023-03-30T00:50:08.480Z,13.1
2023-03-30T00:55:08.562Z,13.1
2023-03-30T01:00:08.655Z,13.1
2023-03-30T01:05:08.684Z,13.1
2023-03-30T01:10:08.752Z,13.3
2023-03-30T01:15:08.856Z,13.3
2023-03-30T01:20:08.924Z,13.1
2023-03-30T01:25:08.992Z,13.1
2023-03-30T01:30:07.972Z,13.3
2023-03-30T01:35:08.009Z,13.3
2023-03-30T01:40:08.110Z,12.8
2023-03-30T01:45:14.144Z,12.8
2023-03-30T01:50:08.131Z,12.5
2023-03-30T01:55:08.186Z,12.5
2023-03-30T02:00:08.241Z,12.5
2023-03-30T02:05:08.296Z,12.5
2023-03-30T02:10:08.348Z,12.6
2023-03-30T02:15:08.384Z,12.6
2023-03-30T02:20:08.419Z,12.8
2023-03-30T02:25:08.447Z,12.8
2023-03-30T02:30:08.508Z,12.6
2023-03-30T02:35:08.611Z,12.6
2023-03-30T02:40:08.685Z,12.5
2023-03-30T02:45:17.904Z,12.5
2023-03-30T02:50:07.985Z,12.6
2023-03-30T02:55:07.986Z,12.6
2023-03-30T03:00:07.995Z,12.5
2023-03-30T03:05:08.084Z,12.5
2023-03-30T03:10:08.111Z,12.3
2023-03-30T03:15:08.153Z,12.3
2023-03-30T03:20:08.218Z,12.1
2023-03-30T03:25:08.252Z,12.1
2023-03-30T03:30:08.358Z,12.8
2023-03-30T03:35:08.393Z,12.8
2023-03-30T03:40:08.399Z,13.1
2023-03-30T03:45:08.502Z,13.1
2023-03-30T03:50:08.551Z,13.5
2023-03-30T03:55:08.601Z,13.5
2023-03-30T04:00:08.640Z,13.6
2023-03-30T04:05:02.902Z,13.6
2023-03-30T04:10:02.208Z,13.6
2023-03-30T04:15:02.462Z,13.6
2023-03-30T04:20:03.769Z,13.6
2023-03-30T04:25:03.865Z,13.6
2023-03-30T04:30:03.119Z,13.6
2023-03-30T04:35:02.305Z,13.6
2023-03-30T04:40:02.582Z,13.3
2023-03-30T04:45:02.778Z,13.3
2023-03-30T04:50:03.117Z,12.8
2023-03-30T04:55:02.347Z,12.8
2023-03-30T05:00:02.547Z,13.1
2023-03-30T05:05:02.785Z,13.1
2023-03-30T05:10:02.936Z,13.1
2023-03-30T05:15:02.189Z,13.1
2023-03-30T05:20:02.444Z,12.8
2023-03-30T05:25:02.709Z,12.8
2023-03-30T05:30:02.921Z,12.8
2023-03-30T05:35:03.070Z,12.8
2023-03-30T05:40:02.220Z,12.8
2023-03-30T05:45:02.484Z,12.8
2023-03-30T05:50:02.593Z,13.1
2023-03-30T05:55:02.790Z,13.1
2023-03-30T06:00:02.954Z,12.8
2023-03-30T06:05:02.667Z,12.8
2023-03-30T06:10:02.937Z,12.3
2023-03-30T06:15:03.444Z,12.3
2023-03-30T06:20:02.669Z,12.1
2023-03-30T06:25:02.867Z,12.1
2023-03-30T06:30:03.301Z,12.1
2023-03-30T06:35:02.489Z,12.1
2023-03-30T06:40:02.803Z,12.1
2023-03-30T06:45:03.345Z,12.1
2023-03-30T06:50:02.487Z,12.1
2023-03-30T06:55:02.629Z,12.1
2023-03-30T07:00:02.879Z,12.0
2023-03-30T07:05:03.102Z,12.1
2023-03-30T07:10:02.565Z,12.1
2023-03-30T07:15:02.771Z,12.0
2023-03-30T07:20:02.980Z,11.8
2023-03-30T07:25:02.613Z,11.6
2023-03-30T07:30:13.850Z,11.6
2023-03-30T07:35:02.181Z,12.0
2023-03-30T07:40:02.311Z,12.1
2023-03-30T07:45:02.424Z,12.1
2023-03-30T07:50:03.030Z,12.1
2023-03-30T07:55:02.253Z,12.1
2023-03-30T08:00:02.563Z,12.5
2023-03-30T08:05:03.063Z,12.8
2023-03-30T08:10:02.400Z,13.1
2023-03-30T08:15:02.722Z,13.1
2023-03-30T08:20:02.894Z,13.6
2023-03-30T08:25:03.143Z,13.6
2023-03-30T08:30:02.377Z,14.0
2023-03-30T08:35:02.616Z,14.0
2023-03-30T08:40:02.797Z,14.6
2023-03-30T08:45:03.001Z,14.6
2023-03-30T08:50:02.180Z,14.1
2023-03-30T08:55:02.343Z,14.1
2023-03-30T09:00:02.617Z,13.6
2023-03-30T09:05:12.655Z,13.6
2023-03-30T09:10:02.922Z,14.0
2023-03-30T09:15:03.012Z,14.0
2023-03-30T09:20:02.299Z,13.8
2023-03-30T09:25:02.628Z,13.8
2023-03-30T09:30:02.845Z,14.1
2023-03-30T09:35:03.155Z,14.1
2023-03-30T09:40:02.450Z,14.6
2023-03-30T09:45:02.590Z,14.6
2023-03-30T09:50:02.744Z,15.3
2023-03-30T09:55:03.079Z,15.3
2023-03-30T10:00:02.284Z,15.0
2023-03-30T10:05:02.737Z,15.0
2023-03-30T10:10:03.457Z,14.6
2023-03-30T10:15:02.778Z,14.6
2023-03-30T10:20:13.304Z,14.6
2023-03-30T10:25:03.063Z,14.6
2023-03-30T10:30:02.306Z,15.6
2023-03-30T10:35:02.708Z,15.6
2023-03-30T10:40:03.040Z,16.6
2023-03-30T10:45:02.205Z,16.6
2023-03-30T10:50:05.255Z,14.6
2023-03-30T10:55:02.884Z,15.8
2023-03-30T11:00:03.287Z,17.1
2023-03-30T11:05:02.592Z,16.2
2023-03-30T11:10:02.941Z,16.2
2023-03-30T11:15:02.276Z,16.3
2023-03-30T11:20:02.523Z,16.3
2023-03-30T11:25:02.718Z,15.1
2023-03-30T11:30:02.958Z,15.1
2023-03-30T11:35:05.055Z,14.8
2023-03-30T11:40:02.292Z,15.6
2023-03-30T11:45:02.754Z,15.3
2023-03-30T11:50:02.932Z,15.3
2023-03-30T11:55:04.086Z,16.2
2023-03-30T12:00:02.686Z,17.3
2023-03-30T12:05:02.914Z,16.7
2023-03-30T12:10:04.057Z,15.8
2023-03-30T12:15:02.197Z,15.1
2023-03-30T12:20:02.487Z,15.5
2023-03-30T12:25:03.131Z,15.1
2023-03-30T12:30:03.663Z,15.5
2023-03-30T12:35:03.079Z,17.2
2023-03-30T12:40:02.376Z,17.1
2023-03-30T12:45:02.652Z,17.8
2023-03-30T12:50:11.809Z,15.8
2023-03-30T12:55:03.491Z,15.3
2023-03-30T13:00:02.694Z,14.8
2023-03-30T13:05:03.462Z,14.5
2023-03-30T13:10:04.845Z,13.3
2023-03-30T13:15:02.583Z,13.1
2023-03-30T13:20:02.740Z,13.1
2023-03-30T13:25:02.963Z,14.0
2023-03-30T13:30:05.645Z,14.0
2023-03-30T13:35:07.312Z,16.7
2023-03-30T13:40:03.114Z,17.5
2023-03-30T13:45:02.410Z,17.5
2023-03-30T13:50:02.606Z,18.1
2023-03-30T13:55:02.868Z,15.6
2023-03-30T14:00:03.069Z,15.8
2023-03-30T14:05:02.311Z,15.8
2023-03-30T14:10:02.495Z,16.3
2023-03-30T14:15:02.820Z,16.3
2023-03-30T14:20:03.710Z,18.2
2023-03-30T14:25:02.870Z,18.2
2023-03-30T14:30:03.134Z,16.2
2023-03-30T14:35:02.448Z,15.5
2023-03-30T14:40:02.631Z,14.3
2023-03-30T14:45:02.902Z,11.0
2023-03-30T14:50:03.116Z,11.0
2023-03-30T14:55:08.607Z,11.0
2023-03-30T15:00:02.237Z,10.8
2023-03-30T15:05:02.414Z,11.0
2023-03-30T15:10:02.521Z,11.0
2023-03-30T15:15:02.693Z,11.6
2023-03-30T15:20:03.107Z,12.8
2023-03-30T15:25:02.276Z,12.1
2023-03-30T15:30:02.870Z,13.1
2023-03-30T15:35:03.982Z,11.8
2023-03-30T15:40:02.337Z,12.6
2023-03-30T15:45:12.423Z,11.8
2023-03-30T15:50:02.601Z,12.5
2023-03-30T15:55:12.918Z,12.5
2023-03-30T16:00:03.109Z,12.1
2023-03-30T16:05:02.360Z,12.1
2023-03-30T16:10:02.514Z,11.3
2023-03-30T16:15:02.722Z,12.0
2023-03-30T16:20:05.581Z,11.1
2023-03-30T16:25:02.350Z,11.3
2023-03-30T16:30:02.489Z,11.6
2023-03-30T16:35:02.758Z,11.3
2023-03-30T16:40:03.009Z,11.3
2023-03-30T16:45:02.220Z,11.8
2023-03-30T16:50:02.375Z,11.6
2023-03-30T16:55:02.486Z,11.3
2023-03-30T17:00:02.624Z,11.6
2023-03-30T17:05:02.786Z,11.6
2023-03-30T17:10:03.023Z,11.3
2023-03-30T17:15:02.387Z,11.3
2023-03-30T17:20:02.600Z,11.3
2023-03-30T17:25:02.872Z,11.3
2023-03-30T17:30:03.408Z,12.5
2023-03-30T17:35:02.623Z,12.5
2023-03-30T17:40:02.794Z,12.8
2023-03-30T17:45:02.964Z,12.8
2023-03-30T17:50:02.236Z,12.8
2023-03-30T17:55:02.432Z,12.8
2023-03-30T18:00:02.643Z,13.1
2023-03-30T18:05:02.967Z,12.8
2023-03-30T18:10:02.259Z,12.3
2023-03-30T18:15:02.454Z,10.8
2023-03-30T18:20:02.744Z,10.8
2023-03-30T18:25:02.938Z,10.8
2023-03-30T18:30:02.137Z,11.0
2023-03-30T18:35:02.310Z,10.8
2023-03-30T18:40:02.594Z,10.8
2023-03-30T18:45:02.832Z,10.6
2023-03-30T18:50:03.021Z,10.6
2023-03-30T18:55:02.154Z,10.5
2023-03-30T19:00:02.417Z,10.6
2023-03-30T19:05:02.546Z,10.6
2023-03-30T19:10:02.750Z,10.3
2023-03-30T19:15:02.981Z,10.3
2023-03-30T19:20:02.242Z,10.5
2023-03-30T19:25:02.496Z,10.5
2023-03-30T19:30:02.749Z,10.6
2023-03-30T19:35:02.974Z,10.6
2023-03-30T19:40:02.230Z,10.6
2023-03-30T19:45:02.407Z,10.6
2023-03-30T19:50:02.581Z,10.8
2023-03-30T19:55:02.808Z,10.8
2023-03-30T20:00:02.919Z,10.8
2023-03-30T20:05:03.108Z,10.8
2023-03-30T20:10:02.308Z,10.8
2023-03-30T20:15:02.506Z,10.8
2023-03-30T20:20:02.724Z,11.3
2023-03-30T20:25:02.842Z,11.3
2023-03-30T20:30:03.027Z,11.6
2023-03-30T20:35:02.263Z,11.6
2023-03-30T20:40:03.936Z,11.3
2023-03-30T20:45:02.340Z,11.3
2023-03-30T20:50:02.541Z,11.1
2023-03-30T20:55:02.746Z,11.1
2023-03-30T21:00:02.997Z,11.3
2023-03-30T21:05:14.981Z,11.3
2023-03-30T21:10:08.054Z,11.1
2023-03-30T21:15:08.092Z,11.1
2023-03-30T21:20:08.147Z,11.0
2023-03-30T21:25:08.170Z,11.0
2023-03-30T21:30:08.240Z,11.1
2023-03-30T21:35:08.451Z,11.1
2023-03-30T21:40:08.480Z,11.1
2023-03-30T21:45:08.541Z,11.1
2023-03-30T21:50:08.627Z,11.0
2023-03-30T21:55:08.660Z,11.0
2023-03-30T22:00:08.729Z,10.8
2023-03-30T22:05:08.808Z,10.8
2023-03-30T22:10:08.869Z,10.8
2023-03-30T22:15:08.914Z,10.8
2023-03-30T22:20:08.960Z,10.8
2023-03-30T22:25:08.026Z,10.8
2023-03-30T22:30:08.095Z,10.6
2023-03-30T22:35:08.157Z,10.6
2023-03-30T22:40:08.188Z,10.6
2023-03-30T22:45:08.261Z,10.6
2023-03-30T22:50:08.288Z,10.5
2023-03-30T22:55:08.312Z,10.5
2023-03-30T23:01:12.444Z,10.5
2023-03-30T23:05:08.573Z,10.5
2023-03-30T23:10:08.837Z,10.5
2023-03-30T23:15:08.899Z,10.5
2023-03-30T23:20:08.942Z,10.3
2023-03-30T23:25:07.998Z,10.3
2023-03-30T23:30:08.029Z,10.5
2023-03-30T23:35:08.213Z,10.5
2023-03-30T23:40:08.225Z,10.3
2023-03-30T23:45:08.262Z,10.3
2023-03-30T23:50:08.271Z,10.1
2023-03-30T23:55:08.353Z,10.1
